createdAt,value
2023-04-30T00:00:51.833Z,100640.08
2023-04-30T00:03:37.412Z,100643.64
2023-04-30T00:06:09.453Z,100646.51
2023-04-30T00:08:41.293Z,100642.04
2023-04-30T00:11:13.068Z,100649.73
2023-04-30T00:13:44.859Z,100650.65
2023-04-30T00:16:16.686Z,100656.83
2023-04-30T00:18:48.468Z,100654.29
2023-04-30T00:21:20.301Z,100653.80
2023-04-30T00:23:52.443Z,100654.27
2023-04-30T00:26:24.284Z,100657.02
2023-04-30T00:28:56.488Z,100660.75
2023-04-30T00:31:28.726Z,100662.57
2023-04-30T00:34:01.233Z,100663.92
2023-04-30T00:36:33.332Z,100665.64
2023-04-30T00:39:05.132Z,100666.23
2023-04-30T00:41:37.950Z,100669.25
2023-04-30T00:44:08.127Z,100669.00
2023-04-30T00:46:39.941Z,100674.96
2023-04-30T00:49:11.820Z,100679.05
2023-04-30T00:51:45.003Z,100677.04
2023-04-30T00:54:17.661Z,100679.41
2023-04-30T00:56:49.612Z,100684.39
2023-04-30T00:59:22.109Z,100678.64
2023-04-30T01:01:54.655Z,100684.95
2023-04-30T01:04:27.184Z,100682.17
2023-04-30T01:07:02.127Z,100687.83
2023-04-30T01:09:34.206Z,100690.90
2023-04-30T01:12:14.582Z,100695.48
2023-04-30T01:14:58.328Z,100694.77
2023-04-30T01:17:36.634Z,100692.91
2023-04-30T01:20:12.594Z,100699.17
2023-04-30T01:22:56.002Z,100696.85
2023-04-30T01:25:46.140Z,100696.27
2023-04-30T01:28:20.167Z,100705.70
2023-04-30T01:30:52.985Z,100710.17
2023-04-30T01:33:25.245Z,100709.16
2023-04-30T01:36:21.231Z,100712.69
2023-04-30T01:39:24.003Z,100715.13
2023-04-30T01:42:05.017Z,100717.70
2023-04-30T01:44:50.217Z,100719.20
2023-04-30T01:47:32.042Z,100721.08
2023-04-30T01:50:14.794Z,100729.74
2023-04-30T01:52:51.773Z,100725.36
2023-04-30T01:55:29.453Z,100731.01
2023-04-30T01:58:03.950Z,100728.58
2023-04-30T02:00:36.250Z,100738.84
2023-04-30T02:03:08.286Z,100736.05
2023-04-30T02:05:40.389Z,100744.13
2023-04-30T02:08:12.399Z,100734.73
2023-04-30T02:10:44.525Z,100746.31
2023-04-30T02:13:16.532Z,100744.52
2023-04-30T02:15:48.578Z,100752.21
2023-04-30T02:18:20.440Z,100747.48
2023-04-30T02:20:52.180Z,100762.31
2023-04-30T02:23:24.185Z,100765.79
2023-04-30T02:25:55.961Z,100772.91
2023-04-30T02:28:27.814Z,100777.40
2023-04-30T02:30:59.794Z,100778.83
2023-04-30T02:33:31.667Z,100782.04
2023-04-30T02:36:03.863Z,100777.59
2023-04-30T02:38:35.620Z,100781.38
2023-04-30T02:41:07.439Z,100782.77
2023-04-30T02:43:39.158Z,100782.80
2023-04-30T02:46:10.916Z,100786.37
2023-04-30T02:48:42.652Z,100776.92
2023-04-30T02:51:14.491Z,100790.35
2023-04-30T02:53:46.157Z,100792.86
2023-04-30T02:56:18.064Z,100796.48
2023-04-30T02:58:49.821Z,100793.36
2023-04-30T03:01:21.662Z,100795.38
2023-04-30T03:03:53.968Z,100799.89
2023-04-30T03:06:25.887Z,100800.62
2023-04-30T03:08:57.628Z,100798.45
2023-04-30T03:11:29.485Z,100805.84
2023-04-30T03:14:00.562Z,100809.86
2023-04-30T03:16:32.364Z,100809.91
2023-04-30T03:19:04.357Z,100811.21
2023-04-30T03:21:36.103Z,100815.90
2023-04-30T03:24:08.595Z,100816.13
2023-04-30T03:26:41.797Z,100816.69
2023-04-30T03:29:13.859Z,100820.80
2023-04-30T03:31:45.526Z,100816.98
2023-04-30T03:34:17.444Z,100819.70
2023-04-30T03:36:49.155Z,100826.02
2023-04-30T03:39:21.047Z,100827.32
2023-04-30T03:41:52.847Z,100832.86
2023-04-30T03:44:24.636Z,100827.10
2023-04-30T03:46:56.417Z,100836.27
2023-04-30T03:49:28.161Z,100834.29
2023-04-30T03:52:00.142Z,100837.54
2023-04-30T03:54:33.833Z,100843.86
2023-04-30T03:57:07.671Z,100851.23
2023-04-30T03:59:39.464Z,100853.80
2023-04-30T04:02:11.864Z,100851.63
2023-04-30T04:04:44.187Z,100856.81
2023-04-30T04:07:16.146Z,100860.23
2023-04-30T04:09:48.190Z,100865.64
2023-04-30T04:12:20.198Z,100870.14
2023-04-30T04:14:52.099Z,100870.17
2023-04-30T04:17:23.892Z,100876.77
2023-04-30T04:19:56.028Z,100878.94
2023-04-30T04:22:28.165Z,100883.06
2023-04-30T04:25:00.097Z,100884.32
2023-04-30T04:27:32.045Z,100888.42
2023-04-30T04:30:04.805Z,100895.27
2023-04-30T04:32:42.178Z,100897.80
2023-04-30T04:35:14.367Z,100901.41
2023-04-30T04:37:46.420Z,100904.83
2023-04-30T04:40:18.584Z,100905.55
2023-04-30T04:42:53.017Z,100906.10
2023-04-30T04:45:24.786Z,100905.20
2023-04-30T04:47:56.619Z,100905.90
2023-04-30T04:50:28.633Z,100911.47
2023-04-30T04:53:00.443Z,100915.80
2023-04-30T04:55:32.500Z,100913.99
2023-04-30T04:58:04.259Z,100922.25
2023-04-30T05:00:36.004Z,100925.29
2023-04-30T05:03:09.402Z,100929.61
2023-04-30T05:05:41.466Z,100936.06
2023-04-30T05:08:13.223Z,100935.16
2023-04-30T05:10:44.962Z,100939.83
2023-04-30T05:13:16.945Z,100943.04
2023-04-30T05:15:49.080Z,100942.50
2023-04-30T05:18:20.980Z,100948.27
2023-04-30T05:20:52.786Z,100948.44
2023-04-30T05:23:24.548Z,100949.34
2023-04-30T05:25:57.107Z,100956.15
2023-04-30T05:28:28.832Z,100955.61
2023-04-30T05:31:00.724Z,100962.09
2023-04-30T05:33:32.489Z,100966.21
2023-04-30T05:36:04.611Z,100970.16
2023-04-30T05:38:36.329Z,100975.52
2023-04-30T05:41:08.307Z,100972.09
2023-04-30T05:43:40.050Z,100980.15
2023-04-30T05:46:11.845Z,100985.34
2023-04-30T05:48:43.609Z,100987.30
2023-04-30T05:51:15.929Z,100987.27
2023-04-30T05:53:48.097Z,100994.45
2023-04-30T05:56:19.885Z,100997.67
2023-04-30T05:58:52.550Z,100996.59
2023-04-30T06:01:23.344Z,101006.63
2023-04-30T06:03:55.410Z,101003.59
2023-04-30T06:06:27.950Z,101009.33
2023-04-30T06:08:59.864Z,101011.80
2023-04-30T06:11:32.172Z,101004.60
2023-04-30T06:14:05.067Z,101012.86
2023-04-30T06:16:36.950Z,101015.74
2023-04-30T06:19:09.130Z,101015.00
2023-04-30T06:21:43.536Z,101014.98
2023-04-30T06:24:15.529Z,101022.52
2023-04-30T06:26:47.313Z,101025.41
2023-04-30T06:29:19.014Z,101021.40
2023-04-30T06:31:50.971Z,101020.11
2023-04-30T06:34:22.927Z,101022.04
2023-04-30T06:36:54.693Z,101023.25
2023-04-30T06:39:26.475Z,101027.90
2023-04-30T06:41:58.268Z,101032.91
2023-04-30T06:44:33.112Z,101028.58
2023-04-30T06:47:04.835Z,101029.08
2023-04-30T06:49:36.553Z,101033.20
2023-04-30T06:52:08.425Z,101037.15
2023-04-30T06:54:40.591Z,101036.45
2023-04-30T06:57:12.581Z,101036.79
2023-04-30T06:59:44.288Z,101042.20
2023-04-30T07:02:16.255Z,101038.56
2023-04-30T07:04:49.457Z,101036.34
2023-04-30T07:07:21.778Z,101041.71
2023-04-30T07:09:53.789Z,101039.23
2023-04-30T07:12:26.095Z,101034.88
2023-04-30T07:14:57.915Z,101040.55
2023-04-30T07:17:29.883Z,101041.05
2023-04-30T07:20:01.707Z,101037.90
2023-04-30T07:22:33.606Z,101047.15
2023-04-30T07:25:06.885Z,101042.50
2023-04-30T07:27:38.819Z,101039.64
2023-04-30T07:30:11.862Z,101043.54
2023-04-30T07:32:43.840Z,101050.30
2023-04-30T07:35:15.949Z,101047.23
2023-04-30T07:37:47.943Z,101048.48
2023-04-30T07:40:29.038Z,101055.19
2023-04-30T07:43:07.060Z,101056.64
2023-04-30T07:45:39.017Z,101057.13
2023-04-30T07:48:10.957Z,101062.52
2023-04-30T07:50:42.792Z,101068.64
2023-04-30T07:53:14.530Z,101065.92
2023-04-30T07:55:46.628Z,101069.66
2023-04-30T07:58:18.513Z,101074.70
2023-04-30T08:00:50.345Z,101070.08
2023-04-30T08:03:22.334Z,101062.23
2023-04-30T08:05:54.616Z,101065.77
2023-04-30T08:08:26.438Z,101071.63
2023-04-30T08:10:58.203Z,101073.61
2023-04-30T08:13:30.844Z,101073.39
2023-04-30T08:16:01.197Z,101080.71
2023-04-30T08:18:33.288Z,101076.41
2023-04-30T08:21:05.749Z,101078.41
2023-04-30T08:23:37.667Z,101077.60
2023-04-30T08:26:09.803Z,101074.21
2023-04-30T08:28:41.818Z,101070.69
2023-04-30T08:31:13.721Z,101080.43
2023-04-30T08:33:45.578Z,101080.17
2023-04-30T08:36:17.389Z,101084.39
2023-04-30T08:38:49.471Z,101089.77
2023-04-30T08:41:26.697Z,101090.25
2023-04-30T08:44:02.275Z,101086.06
2023-04-30T08:46:37.628Z,101089.00
2023-04-30T08:49:09.996Z,101094.48
2023-04-30T08:51:42.791Z,101090.15
2023-04-30T08:54:14.201Z,101097.68
2023-04-30T08:56:47.820Z,101104.31
2023-04-30T08:59:19.796Z,101098.48
2023-04-30T09:01:53.813Z,101097.14
2023-04-30T09:04:26.217Z,101101.39
2023-04-30T09:06:59.688Z,101101.43
2023-04-30T09:09:38.642Z,101098.25
2023-04-30T09:12:20.109Z,101096.99
2023-04-30T09:15:03.509Z,101099.23
2023-04-30T09:17:34.235Z,101097.38
2023-04-30T09:20:14.301Z,101094.23
2023-04-30T09:22:46.125Z,101098.94
2023-04-30T09:25:17.929Z,101101.02
2023-04-30T09:27:49.781Z,101104.67
2023-04-30T09:30:34.615Z,101105.27
2023-04-30T09:33:08.680Z,101105.71
2023-04-30T09:35:43.323Z,101105.48
2023-04-30T09:38:29.566Z,101106.95
2023-04-30T09:41:02.909Z,101108.91
2023-04-30T09:43:34.785Z,101104.79
2023-04-30T09:46:06.611Z,101103.47
2023-04-30T09:48:42.413Z,101106.45
2023-04-30T09:51:14.300Z,101103.23
2023-04-30T09:53:46.803Z,101098.77
2023-04-30T09:56:23.847Z,101106.41
2023-04-30T09:58:58.513Z,101097.81
2023-04-30T10:01:30.837Z,101091.69
2023-04-30T10:04:03.458Z,101095.70
2023-04-30T10:06:35.898Z,101088.94
2023-04-30T10:09:11.840Z,101089.55
2023-04-30T10:11:44.518Z,101089.86
2023-04-30T10:14:17.161Z,101092.98
2023-04-30T10:16:55.907Z,101087.68
2023-04-30T10:19:32.089Z,101081.81
2023-04-30T10:22:05.222Z,101076.55
2023-04-30T10:24:37.752Z,101073.67
2023-04-30T10:27:09.850Z,101079.17
2023-04-30T10:29:41.603Z,101078.20
2023-04-30T10:32:15.025Z,101080.94
2023-04-30T10:34:56.509Z,101085.84
2023-04-30T10:37:33.673Z,101079.83
2023-04-30T10:40:09.122Z,101086.13
2023-04-30T10:42:49.091Z,101077.75
2023-04-30T10:45:35.299Z,101077.16
2023-04-30T10:48:08.439Z,101064.48
2023-04-30T10:50:46.281Z,101065.85
2023-04-30T10:53:22.847Z,101067.30
2023-04-30T10:55:58.953Z,101070.78
2023-04-30T10:58:34.364Z,101063.66
2023-04-30T11:01:10.864Z,101073.77
2023-04-30T11:03:44.268Z,101077.41
2023-04-30T11:06:20.337Z,101078.95
2023-04-30T11:08:52.272Z,101076.25
2023-04-30T11:11:24.150Z,101077.50
2023-04-30T11:14:02.711Z,101077.45
2023-04-30T11:16:36.785Z,101073.02
2023-04-30T11:19:14.953Z,101065.83
2023-04-30T11:22:21.029Z,101060.41
2023-04-30T11:25:05.395Z,101058.83
2023-04-30T11:27:38.281Z,101064.27
2023-04-30T11:30:14.979Z,101067.40
2023-04-30T11:32:48.991Z,101065.47
2023-04-30T11:35:21.753Z,101071.21
2023-04-30T11:37:55.949Z,101069.45
2023-04-30T11:40:28.455Z,101064.92
2023-04-30T11:43:00.301Z,101065.75
2023-04-30T11:45:32.364Z,101071.77
2023-04-30T11:48:04.526Z,101069.52
2023-04-30T11:50:43.729Z,101068.53
2023-04-30T11:53:15.588Z,101061.91
2023-04-30T11:55:47.386Z,101059.35
2023-04-30T11:58:20.754Z,101063.91
2023-04-30T12:00:53.516Z,101062.83
2023-04-30T12:03:25.827Z,101059.48
2023-04-30T12:05:58.221Z,101066.51
2023-04-30T12:08:30.161Z,101058.71
2023-04-30T12:11:02.145Z,101058.13
2023-04-30T12:13:35.261Z,101065.96
2023-04-30T12:16:07.873Z,101062.86
2023-04-30T12:18:39.624Z,101061.93
2023-04-30T12:21:11.741Z,101057.45
2023-04-30T12:23:45.141Z,101060.42
2023-04-30T12:26:17.821Z,101058.92
2023-04-30T12:28:52.694Z,101059.45
2023-04-30T12:31:24.561Z,101066.09
2023-04-30T12:33:59.693Z,101058.59
2023-04-30T12:36:36.873Z,101054.55
2023-04-30T12:39:13.269Z,101057.60
2023-04-30T12:41:46.468Z,101055.45
2023-04-30T12:44:20.733Z,101053.23
2023-04-30T12:46:56.327Z,101052.17
2023-04-30T12:49:30.470Z,101049.14
2023-04-30T12:52:04.265Z,101049.65
2023-04-30T12:54:37.431Z,101043.73
2023-04-30T12:57:10.821Z,101046.61
2023-04-30T12:59:59.787Z,101043.88
2023-04-30T13:02:32.307Z,101051.44
2023-04-30T13:05:02.783Z,101047.33
2023-04-30T13:07:40.712Z,101049.21
2023-04-30T13:10:13.834Z,101045.56
2023-04-30T13:12:45.535Z,101042.66
2023-04-30T13:15:17.856Z,101044.23
2023-04-30T13:17:50.072Z,101045.48
2023-04-30T13:20:22.013Z,101038.93
2023-04-30T13:22:53.925Z,101044.05
2023-04-30T13:25:25.914Z,101048.04
2023-04-30T13:27:57.580Z,101041.52
2023-04-30T13:30:29.755Z,101041.11
2023-04-30T13:33:01.683Z,101043.66
2023-04-30T13:35:33.473Z,101041.96
2023-04-30T13:38:05.279Z,101039.42
2023-04-30T13:40:37.142Z,101033.73
2023-04-30T13:43:08.908Z,101036.52
2023-04-30T13:45:41.014Z,101033.86
2023-04-30T13:48:12.817Z,101032.91
2023-04-30T13:50:44.619Z,101036.44
2023-04-30T13:53:16.348Z,101029.54
2023-04-30T13:55:48.043Z,101036.70
2023-04-30T13:58:19.796Z,101037.89
2023-04-30T14:00:51.554Z,101032.70
2023-04-30T14:03:23.422Z,101034.77
2023-04-30T14:05:55.548Z,101035.24
2023-04-30T14:08:27.331Z,101029.74
2023-04-30T14:10:59.169Z,101029.06
2023-04-30T14:13:31.138Z,101026.88
2023-04-30T14:16:03.057Z,101036.62
2023-04-30T14:18:35.055Z,101031.90
2023-04-30T14:21:07.517Z,101026.46
2023-04-30T14:23:38.795Z,101023.45
2023-04-30T14:26:10.617Z,101019.90
2023-04-30T14:28:42.440Z,101021.12
2023-04-30T14:31:14.313Z,101021.31
2023-04-30T14:33:46.539Z,101020.16
2023-04-30T14:36:18.625Z,101015.92
2023-04-30T14:38:50.410Z,101016.58
2023-04-30T14:41:22.269Z,101015.02
2023-04-30T14:43:54.135Z,101009.74
2023-04-30T14:46:26.467Z,101016.74
2023-04-30T14:48:58.485Z,101013.23
2023-04-30T14:51:30.743Z,101006.02
2023-04-30T14:54:03.428Z,101016.37
2023-04-30T14:56:33.830Z,101010.58
2023-04-30T14:59:06.077Z,101013.50
2023-04-30T15:01:37.891Z,101012.05
2023-04-30T15:04:10.138Z,101011.64
2023-04-30T15:06:42.176Z,101008.51
2023-04-30T15:09:14.172Z,101009.27
2023-04-30T15:11:46.199Z,101013.20
2023-04-30T15:14:17.983Z,101013.05
2023-04-30T15:16:49.872Z,101011.16
2023-04-30T15:19:21.765Z,101015.83
2023-04-30T15:21:53.552Z,101009.92
2023-04-30T15:24:26.017Z,101011.88
2023-04-30T15:26:58.609Z,101008.45
2023-04-30T15:29:29.410Z,101006.91
2023-04-30T15:32:01.207Z,101007.09
2023-04-30T15:34:33.030Z,101007.15
2023-04-30T15:37:05.840Z,101001.26
2023-04-30T15:39:38.054Z,101005.58
2023-04-30T15:42:09.805Z,101003.02
2023-04-30T15:44:41.751Z,101002.98
2023-04-30T15:47:13.893Z,101004.17
2023-04-30T15:49:45.676Z,100999.79
2023-04-30T15:52:17.417Z,101006.17
2023-04-30T15:54:49.895Z,100999.67
2023-04-30T15:57:21.950Z,100999.45
2023-04-30T15:59:54.934Z,101002.77
2023-04-30T16:02:27.194Z,101005.56
2023-04-30T16:04:59.177Z,101004.31
2023-04-30T16:07:31.876Z,101005.18
2023-04-30T16:10:02.686Z,101000.19
2023-04-30T16:12:35.107Z,100996.48
2023-04-30T16:15:08.740Z,100997.25
2023-04-30T16:17:40.966Z,100997.36
2023-04-30T16:20:14.300Z,100999.73
2023-04-30T16:22:46.060Z,101003.92
2023-04-30T16:25:17.864Z,101000.49
2023-04-30T16:27:50.205Z,100998.20
2023-04-30T16:30:22.286Z,100999.73
2023-04-30T16:32:54.293Z,100999.34
2023-04-30T16:35:26.786Z,100994.64
2023-04-30T16:37:59.218Z,100997.69
2023-04-30T16:40:31.726Z,100999.01
2023-04-30T16:43:02.066Z,100997.36
2023-04-30T16:45:34.204Z,100993.55
2023-04-30T16:48:06.333Z,100992.52
2023-04-30T16:50:38.321Z,100994.63
2023-04-30T16:53:11.103Z,100994.43
2023-04-30T16:55:44.421Z,100993.39
2023-04-30T16:58:16.689Z,100993.61
2023-04-30T17:00:49.814Z,100991.02
2023-04-30T17:03:21.873Z,100996.30
2023-04-30T17:05:54.463Z,100991.73
2023-04-30T17:08:24.881Z,100989.13
2023-04-30T17:10:56.708Z,100988.47
2023-04-30T17:13:30.765Z,100989.55
2023-04-30T17:16:02.793Z,100987.58
2023-04-30T17:18:34.687Z,100982.69
2023-04-30T17:21:06.742Z,100987.38
2023-04-30T17:23:38.585Z,100990.87
2023-04-30T17:26:10.750Z,100994.77
2023-04-30T17:28:42.530Z,100989.48
2023-04-30T17:31:14.495Z,100992.39
2023-04-30T17:33:46.462Z,100989.94
2023-04-30T17:36:18.684Z,100993.27
2023-04-30T17:38:50.537Z,100994.94
2023-04-30T17:41:22.262Z,100999.06
2023-04-30T17:43:54.600Z,101006.35
2023-04-30T17:46:26.848Z,101007.88
2023-04-30T17:49:01.517Z,101011.02
2023-04-30T17:51:33.716Z,101014.60
2023-04-30T17:54:05.560Z,101015.30
2023-04-30T17:56:38.790Z,101014.59
2023-04-30T17:59:10.538Z,101013.25
2023-04-30T18:01:42.427Z,101009.73
2023-04-30T18:04:20.634Z,101012.70
2023-04-30T18:06:52.701Z,101015.60
2023-04-30T18:09:24.595Z,101014.19
2023-04-30T18:11:58.736Z,101019.50
2023-04-30T18:14:32.599Z,101021.21
2023-04-30T18:17:04.422Z,101022.49
2023-04-30T18:19:38.636Z,101022.93
2023-04-30T18:22:10.405Z,101024.37
2023-04-30T18:24:42.602Z,101026.21
2023-04-30T18:27:15.921Z,101026.59
2023-04-30T18:29:48.860Z,101029.13
2023-04-30T18:32:20.585Z,101028.68
2023-04-30T18:34:52.363Z,101028.36
2023-04-30T18:37:24.351Z,101032.61
2023-04-30T18:39:56.584Z,101032.85
2023-04-30T18:42:30.096Z,101033.73
2023-04-30T18:45:02.122Z,101029.58
2023-04-30T18:47:34.222Z,101035.72
2023-04-30T18:50:10.315Z,101038.29
2023-04-30T18:52:42.838Z,101036.98
2023-04-30T18:55:15.037Z,101037.44
2023-04-30T18:57:47.104Z,101042.70
2023-04-30T19:00:19.158Z,101045.66
2023-04-30T19:02:52.465Z,101049.82
2023-04-30T19:05:24.348Z,101051.35
2023-04-30T19:07:56.095Z,101054.47
2023-04-30T19:10:28.595Z,101057.11
2023-04-30T19:13:00.477Z,101054.30
2023-04-30T19:15:32.209Z,101058.34
2023-04-30T19:18:04.057Z,101058.63
2023-04-30T19:20:36.009Z,101058.23
2023-04-30T19:23:09.340Z,101062.31
2023-04-30T19:25:41.178Z,101062.82
2023-04-30T19:28:14.593Z,101064.39
2023-04-30T19:30:46.687Z,101061.80
2023-04-30T19:33:18.543Z,101061.63
2023-04-30T19:35:53.273Z,101067.57
2023-04-30T19:38:25.017Z,101069.64
2023-04-30T19:40:57.081Z,101072.00
2023-04-30T19:43:28.926Z,101072.04
2023-04-30T19:46:02.104Z,101076.60
2023-04-30T19:48:34.042Z,101075.88
2023-04-30T19:51:07.074Z,101072.98
2023-04-30T19:53:39.047Z,101075.31
2023-04-30T19:56:10.726Z,101077.02
2023-04-30T19:58:43.856Z,101078.77
2023-04-30T20:01:16.149Z,101080.10
2023-04-30T20:03:48.659Z,101083.64
2023-04-30T20:06:21.082Z,101086.65
2023-04-30T20:08:53.094Z,101091.08
2023-04-30T20:11:25.625Z,101090.85
2023-04-30T20:13:58.068Z,101089.55
2023-04-30T20:16:29.871Z,101087.93
2023-04-30T20:19:01.659Z,101083.90
2023-04-30T20:21:34.914Z,101096.08
2023-04-30T20:24:07.547Z,101096.27
2023-04-30T20:26:39.374Z,101099.41
2023-04-30T20:29:11.487Z,101095.34
2023-04-30T20:31:43.388Z,101100.19
2023-04-30T20:34:15.364Z,101104.93
2023-04-30T20:36:47.829Z,101104.45
2023-04-30T20:39:19.709Z,101101.36
2023-04-30T20:41:52.214Z,101102.39
2023-04-30T20:44:26.746Z,101103.07
2023-04-30T20:46:58.582Z,101099.20
2023-04-30T20:49:30.417Z,101103.45
2023-04-30T20:52:02.267Z,101100.77
2023-04-30T20:54:34.250Z,101103.96
2023-04-30T20:57:06.471Z,101105.45
2023-04-30T20:59:39.104Z,101106.73
2023-04-30T21:02:10.870Z,101109.87
2023-04-30T21:04:42.773Z,101111.23
2023-04-30T21:07:14.556Z,101115.01
2023-04-30T21:09:46.522Z,101111.45
2023-04-30T21:12:18.514Z,101113.05
2023-04-30T21:14:50.221Z,101116.34
2023-04-30T21:17:22.181Z,101118.81
2023-04-30T21:19:55.108Z,101119.13
2023-04-30T21:22:27.599Z,101123.36
2023-04-30T21:24:59.284Z,101125.64
2023-04-30T21:27:30.956Z,101126.52
2023-04-30T21:30:03.368Z,101126.92
2023-04-30T21:32:35.147Z,101128.20
2023-04-30T21:35:08.139Z,101127.61
2023-04-30T21:37:40.744Z,101126.62
2023-04-30T21:40:13.619Z,101128.40
2023-04-30T21:42:45.364Z,101131.69
2023-04-30T21:45:17.036Z,101129.04
2023-04-30T21:47:50.975Z,101131.36
2023-04-30T21:50:23.709Z,101134.31
2023-04-30T21:52:55.453Z,101131.92
2023-04-30T21:55:27.644Z,101136.02
2023-04-30T21:57:59.550Z,101136.57
2023-04-30T22:00:31.408Z,101138.20
2023-04-30T22:03:03.842Z,101140.73
2023-04-30T22:05:35.784Z,101143.61
2023-04-30T22:08:08.264Z,101145.92
2023-04-30T22:10:39.989Z,101150.06
2023-04-30T22:13:12.329Z,101150.70
2023-04-30T22:15:48.106Z,101151.44
2023-04-30T22:18:20.701Z,101140.64
2023-04-30T22:20:53.723Z,101146.90
2023-04-30T22:23:25.862Z,101148.52
2023-04-30T22:25:57.590Z,101145.11
2023-04-30T22:28:29.397Z,101147.40
2023-04-30T22:31:01.494Z,101151.44
2023-04-30T22:33:37.031Z,101148.15
2023-04-30T22:36:10.424Z,101151.69
2023-04-30T22:38:42.128Z,101144.65
2023-04-30T22:41:13.809Z,101145.94
2023-04-30T22:43:48.654Z,101142.30
2023-04-30T22:46:20.348Z,101142.33
2023-04-30T22:48:55.359Z,101147.27
2023-04-30T22:51:27.587Z,101145.20
2023-04-30T22:53:59.344Z,101150.21
2023-04-30T22:56:31.063Z,101148.14
2023-04-30T22:59:03.178Z,101147.91
2023-04-30T23:01:35.802Z,101148.05
2023-04-30T23:04:09.540Z,101146.83
2023-04-30T23:06:42.759Z,101147.17
2023-04-30T23:09:15.485Z,101150.02
2023-04-30T23:11:48.154Z,101147.28
2023-04-30T23:14:20.093Z,101147.09
2023-04-30T23:16:51.918Z,101149.77
2023-04-30T23:19:24.106Z,101140.59
2023-04-30T23:21:56.871Z,101146.70
2023-04-30T23:24:28.808Z,101152.50
2023-04-30T23:27:00.616Z,101145.13
2023-04-30T23:29:33.268Z,101142.79
2023-04-30T23:32:06.297Z,101139.56
2023-04-30T23:34:38.037Z,101141.36
2023-04-30T23:37:09.682Z,101141.00
2023-04-30T23:39:41.563Z,101138.85
2023-04-30T23:42:13.626Z,101139.65
2023-04-30T23:44:45.462Z,101136.58
2023-04-30T23:47:17.885Z,101134.55
2023-04-30T23:49:49.552Z,101136.00
2023-04-30T23:52:21.387Z,101131.00
2023-04-30T23:54:53.153Z,101137.84
2023-04-30T23:57:25.834Z,101136.95
2023-04-30T23:59:56.639Z,101140.19
